Time,TemperatureF,DewpointF,PressureIn,WindDirection,WindDirectionDegrees,WindSpeedMPH,WindSpeedGustMPH,Humidity,HourlyPrecipIn,Conditions,Clouds,dailyrainin,SoftwareType,DateUTC
2013-12-07 00:04:00,24.3,22.3,30.48,South,183,4.0,7.0,92,0.00,,---,0.00,VWS V14.00,2013-12-07 06:04:00,
2013-12-07 00:09:00,24.2,22.2,30.48,South,183,3.0,5.0,92,0.00,,---,0.00,VWS V14.00,2013-12-07 06:09:00,
2013-12-07 00:14:00,24.1,21.9,30.48,South,183,6.0,7.0,91,0.00,,---,0.00,VWS V14.00,2013-12-07 06:14:00,
2013-12-07 00:19:00,24.0,21.8,30.49,South,183,2.0,7.0,91,0.00,,---,0.00,VWS V14.00,2013-12-07 06:19:00,
2013-12-07 00:24:00,24.0,22.0,30.49,South,183,4.0,6.0,92,0.00,,---,0.00,VWS V14.00,2013-12-07 06:24:00,
2013-12-07 00:29:00,23.9,21.9,30.49,South,183,1.0,6.0,92,0.00,,---,0.00,VWS V14.00,2013-12-07 06:29:00,
2013-12-07 00:34:00,23.8,21.6,30.49,South,183,3.0,7.0,91,0.00,,---,0.00,VWS V14.00,2013-12-07 06:34:00,
2013-12-07 00:39:00,23.8,21.6,30.49,South,183,4.0,7.0,91,0.00,,---,0.00,VWS V14.00,2013-12-07 06:39:00,
2013-12-07 00:44:00,23.8,21.8,30.49,South,183,2.0,7.0,92,0.00,,---,0.00,VWS V14.00,2013-12-07 06:44:00,
2013-12-07 00:49:00,23.7,21.5,30.50,South,183,3.0,5.0,91,0.00,,---,0.00,VWS V14.00,2013-12-07 06:49:00,
2013-12-07 00:54:00,23.6,21.4,30.50,South,183,5.0,5.0,91,0.00,,---,0.00,VWS V14.00,2013-12-07 06:54:00,
2013-12-07 00:59:00,23.5,21.3,30.50,South,183,4.0,5.0,91,0.00,,---,0.00,VWS V14.00,2013-12-07 06:59:00,
2013-12-07 01:04:00,23.2,21.0,30.50,South,183,2.0,9.0,91,0.00,,---,0.00,VWS V14.00,2013-12-07 07:04:00,
2013-12-07 01:09:00,23.0,20.8,30.50,West,277,1.0,11.0,91,0.00,,---,0.00,VWS V14.00,2013-12-07 07:09:00,
2013-12-07 01:14:00,22.9,20.7,30.51,NNW,330,1.0,8.0,91,0.00,,---,0.00,VWS V14.00,2013-12-07 07:14:00,
2013-12-07 01:19:00,22.8,20.6,30.51,NNW,330,3.0,8.0,91,0.00,,---,0.00,VWS V14.00,2013-12-07 07:19:00,
2013-12-07 01:24:00,22.7,20.2,30.51,WSW,257,3.0,9.0,90,0.00,,---,0.00,VWS V14.00,2013-12-07 07:24:00,
2013-12-07 01:29:00,22.7,20.2,30.51,WNW,300,2.0,5.0,90,0.00,,---,0.00,VWS V14.00,2013-12-07 07:29:00,
2013-12-07 01:34:00,22.6,20.1,30.51,NNE,22,5.0,8.0,90,0.00,,---,0.00,VWS V14.00,2013-12-07 07:34:00,
2013-12-07 01:39:00,22.5,20.0,30.52,NNE,14,6.0,7.0,90,0.00,,---,0.00,VWS V14.00,2013-12-07 07:39:00,
2013-12-07 01:44:00,22.5,20.0,30.51,NNE,18,4.0,8.0,90,0.00,,---,0.00,VWS V14.00,2013-12-07 07:44:00,
2013-12-07 01:49:00,22.4,19.9,30.51,South,190,3.0,10.0,90,0.00,,---,0.00,VWS V14.00,2013-12-07 07:49:00,
2013-12-07 01:54:00,22.3,19.8,30.51,NW,312,2.0,8.0,90,0.00,,---,0.00,VWS V14.00,2013-12-07 07:54:00,
2013-12-07 01:59:00,22.1,19.6,30.52,NW,316,2.0,7.0,90,0.00,,---,0.00,VWS V14.00,2013-12-07 07:59:00,
2013-12-07 02:04:00,22.0,19.5,30.52,WNW,287,1.0,6.0,90,0.00,,---,0.00,VWS V14.00,2013-12-07 08:04:00,
2013-12-07 02:09:00,21.9,19.4,30.52,South,190,2.0,6.0,90,0.00,,---,0.00,VWS V14.00,2013-12-07 08:09:00,
2013-12-07 02:14:00,21.8,19.3,30.52,South,190,4.0,6.0,90,0.00,,---,0.00,VWS V14.00,2013-12-07 08:14:00,
2013-12-07 02:19:00,21.8,19.3,30.53,NW,318,3.0,5.0,90,0.00,,---,0.00,VWS V14.00,2013-12-07 08:19:00,
2013-12-07 02:24:00,21.7,19.2,30.53,NNE,20,3.0,10.0,90,0.00,,---,0.00,VWS V14.00,2013-12-07 08:24:00,
2013-12-07 02:29:00,21.8,19.3,30.54,WNW,294,6.0,7.0,90,0.00,,---,0.00,VWS V14.00,2013-12-07 08:29:00,
2013-12-07 02:34:00,21.8,19.3,30.54,NNE,12,2.0,7.0,90,0.00,,---,0.00,VWS V14.00,2013-12-07 08:34:00,
2013-12-07 02:39:00,21.7,19.2,30.54,NNW,332,2.0,9.0,90,0.00,,---,0.00,VWS V14.00,2013-12-07 08:39:00,
2013-12-07 02:44:00,21.6,18.9,30.53,NE,39,5.0,8.0,89,0.00,,---,0.00,VWS V14.00,2013-12-07 08:44:00,
2013-12-07 02:49:00,21.6,18.9,30.54,NNW,342,3.0,9.0,89,0.00,,---,0.00,VWS V14.00,2013-12-07 08:49:00,
2013-12-07 02:54:00,21.4,18.7,30.53,NW,325,6.0,8.0,89,0.00,,---,0.00,VWS V14.00,2013-12-07 08:54:00,
2013-12-07 02:59:00,21.3,18.3,30.53,North,354,4.0,11.0,88,0.00,,---,0.00,VWS V14.00,2013-12-07 08:59:00,
2013-12-07 03:04:00,21.3,18.6,30.53,North,1,2.0,7.0,89,0.00,,---,0.00,VWS V14.00,2013-12-07 09:04:00,
2013-12-07 03:09:00,21.2,18.5,30.54,NE,42,6.0,11.0,89,0.00,,---,0.00,VWS V14.00,2013-12-07 09:09:00,
2013-12-07 03:14:00,21.2,18.5,30.54,NW,304,2.0,7.0,89,0.00,,---,0.00,VWS V14.00,2013-12-07 09:14:00,
2013-12-07 03:19:00,21.1,18.4,30.54,SE,125,2.0,8.0,89,0.00,,---,0.00,VWS V14.00,2013-12-07 09:19:00,
2013-12-07 03:24:00,21.0,18.0,30.54,NNE,27,6.0,9.0,88,0.00,,---,0.00,VWS V14.00,2013-12-07 09:24:00,
2013-12-07 03:29:00,20.9,18.2,30.54,NW,326,1.0,9.0,89,0.00,,---,0.00,VWS V14.00,2013-12-07 09:29:00,
2013-12-07 03:34:00,20.9,18.2,30.54,North,6,2.0,7.0,89,0.00,,---,0.00,VWS V14.00,2013-12-07 09:34:00,
2013-12-07 03:39:00,20.9,18.2,30.54,NNW,333,3.0,7.0,89,0.00,,---,0.00,VWS V14.00,2013-12-07 09:39:00,
2013-12-07 03:44:00,20.9,18.2,30.55,ENE,71,5.0,10.0,89,0.00,,---,0.00,VWS V14.00,2013-12-07 09:44:00,
2013-12-07 03:49:00,20.8,18.1,30.55,NNW,328,5.0,9.0,89,0.00,,---,0.00,VWS V14.00,2013-12-07 09:49:00,
2013-12-07 03:54:00,20.8,18.1,30.55,NNW,339,3.0,9.0,89,0.00,,---,0.00,VWS V14.00,2013-12-07 09:54:00,
2013-12-07 03:59:00,20.8,18.1,30.55,WNW,301,2.0,7.0,89,0.00,,---,0.00,VWS V14.00,2013-12-07 09:59:00,
2013-12-07 04:04:00,20.7,18.0,30.55,NNW,345,3.0,7.0,89,0.00,,---,0.00,VWS V14.00,2013-12-07 10:04:00,
2013-12-07 04:09:00,20.7,18.0,30.55,North,1,2.0,3.0,89,0.00,,---,0.00,VWS V14.00,2013-12-07 10:09:00,
2013-12-07 04:14:00,20.7,18.0,30.55,NNW,338,2.0,3.0,89,0.00,,---,0.00,VWS V14.00,2013-12-07 10:14:00,
2013-12-07 04:19:00,20.7,18.0,30.55,ENE,74,5.0,5.0,89,0.00,,---,0.00,VWS V14.00,2013-12-07 10:19:00,
2013-12-07 04:24:00,20.7,18.0,30.55,WNW,294,3.0,4.0,89,0.00,,---,0.00,VWS V14.00,2013-12-07 10:24:00,
2013-12-07 04:29:00,20.7,18.0,30.55,NW,325,2.0,5.0,89,0.00,,---,0.00,VWS V14.00,2013-12-07 10:29:00,
2013-12-07 04:35:00,20.7,18.0,30.56,NNW,336,2.0,2.0,89,0.00,,---,0.00,VWS V14.00,2013-12-07 10:35:00,
2013-12-07 04:40:00,20.6,17.9,30.56,NNW,328,3.0,6.0,89,0.00,,---,0.00,VWS V14.00,2013-12-07 10:40:00,
2013-12-07 04:45:00,20.6,17.9,30.56,NW,315,4.0,6.0,89,0.00,,---,0.00,VWS V14.00,2013-12-07 10:45:00,
2013-12-07 04:50:00,20.6,17.9,30.57,South,182,5.0,6.0,89,0.00,,---,0.00,VWS V14.00,2013-12-07 10:50:00,
2013-12-07 04:55:00,20.6,17.9,30.57,NNW,337,7.0,7.0,89,0.00,,---,0.00,VWS V14.00,2013-12-07 10:55:00,
2013-12-07 05:00:00,20.6,17.9,30.58,NNW,343,2.0,4.0,89,0.00,,---,0.00,VWS V14.00,2013-12-07 11:00:00,
2013-12-07 05:05:00,20.6,17.9,30.58,NNE,16,5.0,7.0,89,0.00,,---,0.00,VWS V14.00,2013-12-07 11:05:00,
2013-12-07 05:10:00,20.5,17.8,30.57,NW,311,3.0,7.0,89,0.00,,---,0.00,VWS V14.00,2013-12-07 11:10:00,
2013-12-07 05:16:00,20.5,17.8,30.57,North,5,3.0,7.0,89,0.00,,---,0.00,VWS V14.00,2013-12-07 11:16:00,
2013-12-07 05:21:00,20.4,17.7,30.58,NNE,29,4.0,4.0,89,0.00,,---,0.00,VWS V14.00,2013-12-07 11:21:00,
2013-12-07 05:26:00,20.4,17.7,30.58,NNW,340,4.0,7.0,89,0.00,,---,0.00,VWS V14.00,2013-12-07 11:26:00,
2013-12-07 05:31:00,20.3,17.6,30.58,NW,311,1.0,4.0,89,0.00,,---,0.00,VWS V14.00,2013-12-07 11:31:00,
2013-12-07 05:36:00,20.2,17.5,30.58,NW,309,3.0,5.0,89,0.00,,---,0.00,VWS V14.00,2013-12-07 11:36:00,
2013-12-07 05:41:00,20.2,17.5,30.59,North,4,0.0,1.0,89,0.00,,---,0.00,VWS V14.00,2013-12-07 11:41:00,
2013-12-07 05:46:00,20.2,17.5,30.59,NE,37,3.0,6.0,89,0.00,,---,0.00,VWS V14.00,2013-12-07 11:46:00,
2013-12-07 05:51:00,20.1,17.4,30.59,NNW,343,1.0,5.0,89,0.00,,---,0.00,VWS V14.00,2013-12-07 11:51:00,
2013-12-07 05:56:00,20.0,17.3,30.59,NNE,22,3.0,7.0,89,0.00,,---,0.00,VWS V14.00,2013-12-07 11:56:00,
2013-12-07 06:01:00,19.9,17.2,30.59,West,262,3.0,5.0,89,0.00,,---,0.00,VWS V14.00,2013-12-07 12:01:00,
2013-12-07 06:07:00,19.8,17.1,30.60,NW,307,5.0,9.0,89,0.00,,---,0.00,VWS V14.00,2013-12-07 12:07:00,
2013-12-07 06:12:00,19.6,16.6,30.59,North,360,4.0,6.0,88,0.00,,---,0.00,VWS V14.00,2013-12-07 12:12:00,
2013-12-07 06:17:00,19.5,16.5,30.59,NNE,18,6.0,6.0,88,0.00,,---,0.00,VWS V14.00,2013-12-07 12:17:00,
2013-12-07 06:22:00,19.4,16.4,30.60,North,353,3.0,7.0,88,0.00,,---,0.00,VWS V14.00,2013-12-07 12:22:00,
2013-12-07 06:27:00,19.3,16.3,30.60,North,5,3.0,5.0,88,0.00,,---,0.00,VWS V14.00,2013-12-07 12:27:00,
2013-12-07 06:32:00,19.2,16.2,30.60,NNW,339,3.0,4.0,88,0.00,,---,0.00,VWS V14.00,2013-12-07 12:32:00,
2013-12-07 06:37:00,19.0,16.0,30.61,WSW,252,4.0,7.0,88,0.00,,---,0.00,VWS V14.00,2013-12-07 12:37:00,
2013-12-07 06:42:00,18.9,15.9,30.61,NNW,332,4.0,4.0,88,0.00,,---,0.00,VWS V14.00,2013-12-07 12:42:00,
2013-12-07 06:47:00,18.8,16.1,30.61,North,1,2.0,7.0,89,0.00,,---,0.00,VWS V14.00,2013-12-07 12:47:00,
2013-12-07 06:52:00,18.7,16.0,30.61,NNW,329,4.0,4.0,89,0.00,,---,0.00,VWS V14.00,2013-12-07 12:52:00,
2013-12-07 06:58:00,18.5,15.6,30.61,WNW,291,3.0,6.0,88,0.00,,---,0.00,VWS V14.00,2013-12-07 12:58:00,
2013-12-07 07:03:00,18.3,15.4,30.61,NW,309,3.0,8.0,88,0.00,,---,0.00,VWS V14.00,2013-12-07 13:03:00,
2013-12-07 07:08:00,18.2,15.2,30.62,NW,323,1.0,6.0,88,0.00,,---,0.00,VWS V14.00,2013-12-07 13:08:00,
2013-12-07 07:13:00,18.1,15.1,30.62,NNE,26,4.0,8.0,88,0.00,,---,0.00,VWS V14.00,2013-12-07 13:13:00,
2013-12-07 07:18:00,18.0,15.1,30.62,North,358,4.0,7.0,88,0.00,,---,0.00,VWS V14.00,2013-12-07 13:18:00,
2013-12-07 07:23:00,17.9,14.9,30.62,NNE,27,4.0,6.0,88,0.00,,---,0.00,VWS V14.00,2013-12-07 13:23:00,
2013-12-07 07:28:00,17.9,14.9,30.61,North,351,1.0,3.0,88,0.00,,---,0.00,VWS V14.00,2013-12-07 13:28:00,
2013-12-07 07:33:00,18.0,15.3,30.61,NNE,27,2.0,4.0,89,0.00,,---,0.00,VWS V14.00,2013-12-07 13:33:00,
2013-12-07 07:38:00,18.1,15.1,30.61,NNE,22,3.0,5.0,88,0.00,,---,0.00,VWS V14.00,2013-12-07 13:38:00,
2013-12-07 07:43:00,18.1,15.1,30.61,NNW,330,2.0,7.0,88,0.00,,---,0.00,VWS V14.00,2013-12-07 13:43:00,
2013-12-07 07:49:00,18.1,15.1,30.62,NNE,25,3.0,4.0,88,0.00,,---,0.00,VWS V14.00,2013-12-07 13:49:00,
2013-12-07 07:54:00,18.3,15.4,30.62,North,11,3.0,6.0,88,0.00,,---,0.00,VWS V14.00,2013-12-07 13:54:00,
2013-12-07 07:59:00,18.5,15.3,30.62,NNW,342,4.0,9.0,87,0.00,,---,0.00,VWS V14.00,2013-12-07 13:59:00,
2013-12-07 08:04:00,18.5,15.3,30.62,WSW,243,4.0,7.0,87,0.00,,---,0.00,VWS V14.00,2013-12-07 14:04:00,
2013-12-07 08:09:00,18.5,15.3,30.62,SE,132,3.0,10.0,87,0.00,,---,0.00,VWS V14.00,2013-12-07 14:09:00,
2013-12-07 08:14:00,18.6,15.4,30.62,NNE,12,6.0,7.0,87,0.00,,---,0.00,VWS V14.00,2013-12-07 14:14:00,
2013-12-07 08:19:00,18.7,15.2,30.62,NNW,338,4.0,8.0,86,0.00,,---,0.00,VWS V14.00,2013-12-07 14:19:00,
2013-12-07 08:24:00,19.1,15.9,30.62,North,5,7.0,7.0,87,0.00,,---,0.00,VWS V14.00,2013-12-07 14:24:00,
2013-12-07 08:29:00,19.8,16.6,30.62,NNW,342,4.0,7.0,87,0.00,,---,0.00,VWS V14.00,2013-12-07 14:29:00,
2013-12-07 08:34:00,20.0,16.5,30.62,NNW,340,2.0,7.0,86,0.00,,---,0.00,VWS V14.00,2013-12-07 14:34:00,
2013-12-07 08:39:00,20.0,16.5,30.63,NNW,329,3.0,7.0,86,0.00,,---,0.00,VWS V14.00,2013-12-07 14:39:00,
2013-12-07 08:44:00,19.9,16.4,30.63,NNE,15,2.0,3.0,86,0.00,,---,0.00,VWS V14.00,2013-12-07 14:44:00,
2013-12-07 08:49:00,20.0,16.5,30.63,WSW,245,5.0,5.0,86,0.00,,---,0.00,VWS V14.00,2013-12-07 14:49:00,
2013-12-07 08:54:00,20.1,16.6,30.63,NNW,343,4.0,5.0,86,0.00,,---,0.00,VWS V14.00,2013-12-07 14:54:00,
2013-12-07 09:00:00,20.5,17.0,30.63,North,356,6.0,6.0,86,0.00,,---,0.00,VWS V14.00,2013-12-07 15:00:00,
2013-12-07 09:05:00,20.5,17.2,30.64,NNW,347,4.0,4.0,87,0.00,,---,0.00,VWS V14.00,2013-12-07 15:05:00,
2013-12-07 09:10:00,20.6,17.1,30.63,North,351,6.0,7.0,86,0.00,,---,0.00,VWS V14.00,2013-12-07 15:10:00,
2013-12-07 09:15:00,21.0,17.8,30.64,NW,318,4.0,4.0,87,0.00,,---,0.00,VWS V14.00,2013-12-07 15:15:00,
2013-12-07 09:20:00,21.4,18.1,30.64,NNE,29,7.0,8.0,87,0.00,,---,0.00,VWS V14.00,2013-12-07 15:20:00,
2013-12-07 09:25:00,21.4,17.9,30.64,NNE,18,4.0,6.0,86,0.00,,---,0.00,VWS V14.00,2013-12-07 15:25:00,
2013-12-07 09:31:00,21.1,17.6,30.64,NE,40,2.0,6.0,86,0.00,,---,0.00,VWS V14.00,2013-12-07 15:31:00,
2013-12-07 09:36:00,20.8,17.3,30.64,NNW,332,5.0,8.0,86,0.00,,---,0.00,VWS V14.00,2013-12-07 15:36:00,
2013-12-07 09:41:00,20.7,17.5,30.65,NNW,333,3.0,6.0,87,0.00,,---,0.00,VWS V14.00,2013-12-07 15:41:00,
2013-12-07 09:46:00,21.1,18.1,30.65,North,1,6.0,7.0,88,0.00,,---,0.00,VWS V14.00,2013-12-07 15:46:00,
2013-12-07 09:51:00,21.1,17.8,30.65,NNE,16,2.0,8.0,87,0.00,,---,0.00,VWS V14.00,2013-12-07 15:51:00,
2013-12-07 09:56:00,21.3,18.0,30.64,NNE,22,3.0,7.0,87,0.00,,---,0.00,VWS V14.00,2013-12-07 15:56:00,
2013-12-07 10:01:00,21.5,18.2,30.64,NNW,330,3.0,6.0,87,0.00,,---,0.00,VWS V14.00,2013-12-07 16:01:00,
2013-12-07 10:06:00,21.9,18.6,30.64,NNW,328,4.0,7.0,87,0.00,,---,0.00,VWS V14.00,2013-12-07 16:06:00,
2013-12-07 10:12:00,22.1,18.6,30.65,NNW,345,4.0,7.0,86,0.00,,---,0.00,VWS V14.00,2013-12-07 16:12:00,
2013-12-07 10:17:00,22.1,18.6,30.65,NNW,345,4.0,8.0,86,0.00,,---,0.00,VWS V14.00,2013-12-07 16:17:00,
2013-12-07 10:22:00,23.0,20.0,30.65,NW,324,2.0,5.0,88,0.00,,---,0.00,VWS V14.00,2013-12-07 16:22:00,
2013-12-07 10:27:00,23.7,20.4,30.65,WNW,295,5.0,7.0,87,0.00,,---,0.00,VWS V14.00,2013-12-07 16:27:00,
2013-12-07 10:32:00,23.4,19.6,30.65,NNW,332,5.0,9.0,85,0.00,,---,0.00,VWS V14.00,2013-12-07 16:32:00,
2013-12-07 10:37:00,23.5,20.2,30.65,NW,307,2.0,6.0,87,0.00,,---,0.00,VWS V14.00,2013-12-07 16:37:00,
2013-12-07 10:42:00,23.8,20.2,30.65,East,91,5.0,6.0,86,0.00,,---,0.00,VWS V14.00,2013-12-07 16:42:00,
2013-12-07 10:48:00,24.1,20.5,30.65,NNW,328,3.0,7.0,86,0.00,,---,0.00,VWS V14.00,2013-12-07 16:48:00,
2013-12-07 10:53:00,24.0,20.4,30.65,NW,311,4.0,8.0,86,0.00,,---,0.00,VWS V14.00,2013-12-07 16:53:00,
2013-12-07 10:58:00,23.2,19.4,30.64,NNW,337,2.0,7.0,85,0.00,,---,0.00,VWS V14.00,2013-12-07 16:58:00,
2013-12-07 11:03:00,22.9,19.4,30.64,NNW,333,2.0,8.0,86,0.00,,---,0.00,VWS V14.00,2013-12-07 17:03:00,
2013-12-07 11:08:00,23.3,20.0,30.64,NNW,333,5.0,6.0,87,0.00,,---,0.00,VWS V14.00,2013-12-07 17:08:00,
2013-12-07 11:13:00,22.5,18.7,30.64,ESE,105,4.0,6.0,85,0.00,,---,0.00,VWS V14.00,2013-12-07 17:13:00,
2013-12-07 11:19:00,22.1,18.8,30.63,North,357,4.0,8.0,87,0.00,,---,0.00,VWS V14.00,2013-12-07 17:19:00,
2013-12-07 11:24:00,22.0,18.7,30.63,NW,323,7.0,8.0,87,0.00,,---,0.00,VWS V14.00,2013-12-07 17:24:00,
2013-12-07 11:29:00,22.4,19.4,30.63,WNW,283,5.0,9.0,88,0.00,,---,0.00,VWS V14.00,2013-12-07 17:29:00,
2013-12-07 11:34:00,22.9,19.9,30.62,NW,316,3.0,7.0,88,0.00,,---,0.00,VWS V14.00,2013-12-07 17:34:00,
2013-12-07 11:39:00,23.4,20.4,30.63,NNW,332,1.0,6.0,88,0.00,,---,0.00,VWS V14.00,2013-12-07 17:39:00,
2013-12-07 11:44:00,23.6,20.3,30.62,NNW,340,1.0,6.0,87,0.00,,---,0.00,VWS V14.00,2013-12-07 17:44:00,
2013-12-07 11:49:00,23.8,20.8,30.62,NNE,30,4.0,7.0,88,0.00,,---,0.00,VWS V14.00,2013-12-07 17:49:00,
2013-12-07 11:54:00,24.0,20.7,30.61,NNE,25,5.0,7.0,87,0.00,,---,0.00,VWS V14.00,2013-12-07 17:54:00,
2013-12-07 11:59:00,24.3,21.3,30.61,North,357,6.0,7.0,88,0.00,,---,0.00,VWS V14.00,2013-12-07 17:59:00,
2013-12-07 12:04:00,24.4,20.8,30.61,NNE,33,2.0,8.0,86,0.00,,---,0.00,VWS V14.00,2013-12-07 18:04:00,
2013-12-07 12:09:00,24.3,20.7,30.60,NNW,343,3.0,6.0,86,0.00,,---,0.00,VWS V14.00,2013-12-07 18:09:00,
2013-12-07 12:14:00,24.4,21.1,30.60,NNE,13,6.0,7.0,87,0.00,,---,0.00,VWS V14.00,2013-12-07 18:14:00,
2013-12-07 12:19:00,24.2,20.9,30.61,NW,304,4.0,7.0,87,0.00,,---,0.00,VWS V14.00,2013-12-07 18:19:00,
2013-12-07 12:24:00,23.8,20.5,30.60,North,8,5.0,8.0,87,0.00,,---,0.00,VWS V14.00,2013-12-07 18:24:00,
2013-12-07 12:29:00,23.8,20.5,30.60,North,357,4.0,8.0,87,0.00,,---,0.00,VWS V14.00,2013-12-07 18:29:00,
2013-12-07 12:34:00,24.0,20.7,30.59,NNE,23,3.0,8.0,87,0.00,,---,0.00,VWS V14.00,2013-12-07 18:34:00,
2013-12-07 12:39:00,24.4,21.4,30.59,NNE,32,3.0,8.0,88,0.00,,---,0.00,VWS V14.00,2013-12-07 18:39:00,
2013-12-07 12:44:00,24.4,21.1,30.59,NNE,13,5.0,9.0,87,0.00,,---,0.00,VWS V14.00,2013-12-07 18:44:00,
2013-12-07 12:49:00,24.3,21.0,30.59,NNE,12,5.0,7.0,87,0.00,,---,0.00,VWS V14.00,2013-12-07 18:49:00,
2013-12-07 12:54:00,24.0,20.7,30.58,NNW,340,4.0,8.0,87,0.00,,---,0.00,VWS V14.00,2013-12-07 18:54:00,
2013-12-07 12:59:00,23.9,20.6,30.58,NNW,335,5.0,8.0,87,0.00,,---,0.00,VWS V14.00,2013-12-07 18:59:00,
2013-12-07 13:04:00,24.0,21.0,30.58,NNE,27,3.0,8.0,88,0.00,,---,0.00,VWS V14.00,2013-12-07 19:04:00,
2013-12-07 13:09:00,24.8,22.3,30.57,North,358,3.0,6.0,90,0.00,,---,0.00,VWS V14.00,2013-12-07 19:09:00,
2013-12-07 13:14:00,24.9,22.1,30.58,WNW,287,4.0,8.0,89,0.00,,---,0.00,VWS V14.00,2013-12-07 19:14:00,
2013-12-07 13:19:00,24.7,21.7,30.57,NNW,343,4.0,9.0,88,0.00,,---,0.00,VWS V14.00,2013-12-07 19:19:00,
2013-12-07 13:24:00,24.4,21.4,30.57,NNW,330,5.0,8.0,88,0.00,,---,0.00,VWS V14.00,2013-12-07 19:24:00,
2013-12-07 13:29:00,24.4,21.4,30.57,NNE,20,4.0,11.0,88,0.00,,---,0.00,VWS V14.00,2013-12-07 19:29:00,
2013-12-07 13:34:00,24.4,21.6,30.57,East,94,3.0,8.0,89,0.00,,---,0.00,VWS V14.00,2013-12-07 19:34:00,
2013-12-07 13:39:00,24.5,21.5,30.57,NNW,347,6.0,8.0,88,0.00,,---,0.00,VWS V14.00,2013-12-07 19:39:00,
2013-12-07 13:44:00,24.6,21.6,30.57,NW,320,4.0,8.0,88,0.00,,---,0.00,VWS V14.00,2013-12-07 19:44:00,
2013-12-07 13:49:00,24.4,21.4,30.57,NNE,22,5.0,6.0,88,0.00,,---,0.00,VWS V14.00,2013-12-07 19:49:00,
2013-12-07 13:54:00,24.5,21.7,30.58,NNE,19,4.0,6.0,89,0.00,,---,0.00,VWS V14.00,2013-12-07 19:54:00,
2013-12-07 13:59:00,24.6,21.8,30.58,North,349,6.0,7.0,89,0.00,,---,0.00,VWS V14.00,2013-12-07 19:59:00,
2013-12-07 14:04:00,24.6,21.6,30.58,NNE,30,5.0,7.0,88,0.00,,---,0.00,VWS V14.00,2013-12-07 20:04:00,
2013-12-07 14:09:00,24.6,21.6,30.57,North,8,5.0,7.0,88,0.00,,---,0.00,VWS V14.00,2013-12-07 20:09:00,
2013-12-07 14:14:00,24.4,21.4,30.57,North,5,4.0,9.0,88,0.00,,---,0.00,VWS V14.00,2013-12-07 20:14:00,
2013-12-07 14:19:00,24.3,21.3,30.57,North,359,6.0,10.0,88,0.00,,---,0.00,VWS V14.00,2013-12-07 20:19:00,
2013-12-07 14:24:00,24.3,21.3,30.57,NNE,30,4.0,10.0,88,0.00,,---,0.00,VWS V14.00,2013-12-07 20:24:00,
2013-12-07 14:29:00,24.4,21.4,30.57,NNW,332,1.0,8.0,88,0.00,,---,0.00,VWS V14.00,2013-12-07 20:29:00,
2013-12-07 14:34:00,24.5,21.5,30.57,NNE,18,4.0,8.0,88,0.00,,---,0.00,VWS V14.00,2013-12-07 20:34:00,
2013-12-07 14:39:00,24.4,21.4,30.57,NNW,334,6.0,10.0,88,0.00,,---,0.00,VWS V14.00,2013-12-07 20:39:00,
2013-12-07 14:44:00,24.3,21.3,30.56,NNW,334,2.0,7.0,88,0.00,,---,0.00,VWS V14.00,2013-12-07 20:44:00,
2013-12-07 14:49:00,24.2,20.9,30.57,NNW,339,2.0,10.0,87,0.00,,---,0.00,VWS V14.00,2013-12-07 20:49:00,
2013-12-07 14:54:00,24.1,20.5,30.57,NW,324,4.0,12.0,86,0.00,,---,0.00,VWS V14.00,2013-12-07 20:54:00,
2013-12-07 14:59:00,24.1,20.8,30.57,North,6,6.0,9.0,87,0.00,,---,0.00,VWS V14.00,2013-12-07 20:59:00,
2013-12-07 15:04:00,24.0,20.7,30.57,NNE,32,4.0,9.0,87,0.00,,---,0.00,VWS V14.00,2013-12-07 21:04:00,
2013-12-07 15:09:00,23.8,20.5,30.57,NNW,336,3.0,6.0,87,0.00,,---,0.00,VWS V14.00,2013-12-07 21:09:00,
2013-12-07 15:14:00,23.7,20.4,30.56,NNE,27,6.0,7.0,87,0.00,,---,0.00,VWS V14.00,2013-12-07 21:14:00,
2013-12-07 15:19:00,23.5,20.2,30.57,ENE,60,5.0,10.0,87,0.00,,---,0.00,VWS V14.00,2013-12-07 21:19:00,
2013-12-07 15:24:00,23.3,20.0,30.57,NNE,13,5.0,10.0,87,0.00,,---,0.00,VWS V14.00,2013-12-07 21:24:00,
2013-12-07 15:29:00,23.1,19.8,30.57,North,349,7.0,9.0,87,0.00,,---,0.00,VWS V14.00,2013-12-07 21:29:00,
2013-12-07 15:34:00,23.1,19.8,30.58,NNW,337,6.0,9.0,87,0.00,,---,0.00,VWS V14.00,2013-12-07 21:34:00,
2013-12-07 15:39:00,22.9,19.9,30.58,North,354,7.0,8.0,88,0.00,,---,0.00,VWS V14.00,2013-12-07 21:39:00,
2013-12-07 15:44:00,22.7,19.7,30.58,NNW,329,4.0,10.0,88,0.00,,---,0.00,VWS V14.00,2013-12-07 21:44:00,
2013-12-07 15:49:00,22.6,19.6,30.57,North,357,7.0,8.0,88,0.00,,---,0.00,VWS V14.00,2013-12-07 21:49:00,
2013-12-07 15:54:00,22.5,19.8,30.57,North,351,4.0,9.0,89,0.00,,---,0.00,VWS V14.00,2013-12-07 21:54:00,
2013-12-07 15:59:00,22.5,19.8,30.57,North,359,2.0,8.0,89,0.00,,---,0.00,VWS V14.00,2013-12-07 21:59:00,
2013-12-07 16:04:00,22.4,19.7,30.58,NNE,22,3.0,9.0,89,0.00,,---,0.00,VWS V14.00,2013-12-07 22:04:00,
2013-12-07 16:09:00,22.3,19.6,30.58,NNE,12,4.0,7.0,89,0.00,,---,0.00,VWS V14.00,2013-12-07 22:09:00,
2013-12-07 16:14:00,22.3,19.6,30.58,NNW,345,4.0,8.0,89,0.00,,---,0.00,VWS V14.00,2013-12-07 22:14:00,
2013-12-07 16:19:00,22.2,19.5,30.59,NNW,335,3.0,3.0,89,0.00,,---,0.00,VWS V14.00,2013-12-07 22:19:00,
2013-12-07 16:24:00,22.0,19.3,30.59,NE,44,2.0,3.0,89,0.00,,---,0.00,VWS V14.00,2013-12-07 22:24:00,
2013-12-07 16:29:00,22.0,19.3,30.59,NNE,27,3.0,4.0,89,0.00,,---,0.00,VWS V14.00,2013-12-07 22:29:00,
2013-12-07 16:34:00,21.9,19.2,30.59,NNW,334,3.0,3.0,89,0.00,,---,0.00,VWS V14.00,2013-12-07 22:34:00,
2013-12-07 16:40:00,21.9,19.4,30.59,NNE,26,2.0,6.0,90,0.00,,---,0.00,VWS V14.00,2013-12-07 22:40:00,
2013-12-07 16:45:00,21.9,19.4,30.58,ENE,68,3.0,4.0,90,0.00,,---,0.00,VWS V14.00,2013-12-07 22:45:00,
2013-12-07 16:50:00,21.9,19.4,30.58,NW,315,3.0,5.0,90,0.00,,---,0.00,VWS V14.00,2013-12-07 22:50:00,
2013-12-07 16:55:00,22.0,19.5,30.58,NNW,337,4.0,5.0,90,0.00,,---,0.00,VWS V14.00,2013-12-07 22:55:00,
2013-12-07 17:00:00,22.0,19.5,30.57,North,359,3.0,7.0,90,0.00,,---,0.00,VWS V14.00,2013-12-07 23:00:00,
2013-12-07 17:05:00,22.0,19.5,30.57,NNW,338,6.0,8.0,90,0.00,,---,0.00,VWS V14.00,2013-12-07 23:05:00,
2013-12-07 17:10:00,22.0,19.5,30.57,NE,37,6.0,8.0,90,0.00,,---,0.00,VWS V14.00,2013-12-07 23:10:00,
2013-12-07 17:15:00,22.1,19.6,30.56,NW,326,4.0,5.0,90,0.00,,---,0.00,VWS V14.00,2013-12-07 23:15:00,
2013-12-07 17:20:00,22.1,19.9,30.56,NNW,337,2.0,4.0,91,0.00,,---,0.00,VWS V14.00,2013-12-07 23:20:00,
2013-12-07 17:26:00,22.1,19.9,30.56,NW,305,4.0,6.0,91,0.00,,---,0.00,VWS V14.00,2013-12-07 23:26:00,
2013-12-07 17:31:00,22.1,19.9,30.56,NNW,345,6.0,9.0,91,0.00,,---,0.00,VWS V14.00,2013-12-07 23:31:00,
2013-12-07 17:36:00,22.1,19.9,30.56,NNW,347,5.0,7.0,91,0.00,,---,0.00,VWS V14.00,2013-12-07 23:36:00,
2013-12-07 17:41:00,22.2,20.0,30.57,NNE,32,4.0,6.0,91,0.00,,---,0.00,VWS V14.00,2013-12-07 23:41:00,
2013-12-07 17:46:00,22.2,20.0,30.58,NNW,343,6.0,8.0,91,0.00,,---,0.00,VWS V14.00,2013-12-07 23:46:00,
2013-12-07 17:51:00,22.3,20.1,30.57,NNE,16,8.0,8.0,91,0.00,,---,0.00,VWS V14.00,2013-12-07 23:51:00,
2013-12-07 17:56:00,22.3,20.1,30.58,NW,324,4.0,6.0,91,0.00,,---,0.00,VWS V14.00,2013-12-07 23:56:00,
2013-12-07 18:01:00,22.4,20.2,30.57,NE,46,4.0,5.0,91,0.00,,---,0.00,VWS V14.00,2013-12-08 00:01:00,
2013-12-07 18:07:00,22.5,20.3,30.57,NE,34,5.0,7.0,91,0.00,,---,0.00,VWS V14.00,2013-12-08 00:07:00,
2013-12-07 18:12:00,22.5,20.3,30.56,NNE,12,5.0,9.0,91,0.00,,---,0.00,VWS V14.00,2013-12-08 00:12:00,
2013-12-07 18:17:00,22.6,20.4,30.56,NNE,30,1.0,6.0,91,0.00,,---,0.00,VWS V14.00,2013-12-08 00:17:00,
2013-12-07 18:22:00,22.6,20.4,30.56,NE,36,4.0,9.0,91,0.00,,---,0.00,VWS V14.00,2013-12-08 00:22:00,
2013-12-07 18:27:00,22.6,20.4,30.56,NE,44,4.0,8.0,91,0.00,,---,0.00,VWS V14.00,2013-12-08 00:27:00,
2013-12-07 18:32:00,22.7,20.5,30.56,NNE,13,4.0,9.0,91,0.00,,---,0.00,VWS V14.00,2013-12-08 00:32:00,
2013-12-07 18:37:00,22.7,20.5,30.56,NNE,29,5.0,9.0,91,0.00,,---,0.00,VWS V14.00,2013-12-08 00:37:00,
2013-12-07 18:43:00,22.7,20.5,30.57,NNE,27,5.0,6.0,91,0.00,,---,0.00,VWS V14.00,2013-12-08 00:43:00,
2013-12-07 18:48:00,22.8,20.6,30.57,NNE,26,4.0,6.0,91,0.00,,---,0.00,VWS V14.00,2013-12-08 00:48:00,
2013-12-07 18:53:00,22.8,20.6,30.56,NNE,25,5.0,7.0,91,0.00,,---,0.00,VWS V14.00,2013-12-08 00:53:00,
2013-12-07 18:58:00,22.8,20.6,30.56,North,349,2.0,6.0,91,0.00,,---,0.00,VWS V14.00,2013-12-08 00:58:00,
2013-12-07 19:03:00,22.9,20.7,30.54,NNE,30,4.0,6.0,91,0.00,,---,0.00,VWS V14.00,2013-12-08 01:03:00,
2013-12-07 19:09:00,22.9,20.7,30.54,North,349,3.0,6.0,91,0.00,,---,0.00,VWS V14.00,2013-12-08 01:09:00,
2013-12-07 19:14:00,22.9,20.7,30.54,North,356,4.0,7.0,91,0.00,,---,0.00,VWS V14.00,2013-12-08 01:14:00,
2013-12-07 19:19:00,22.9,20.7,30.53,North,5,3.0,8.0,91,0.00,,---,0.00,VWS V14.00,2013-12-08 01:19:00,
2013-12-07 19:24:00,22.9,20.7,30.53,North,11,4.0,7.0,91,0.00,,---,0.00,VWS V14.00,2013-12-08 01:24:00,
2013-12-07 19:29:00,22.8,20.6,30.54,North,356,7.0,7.0,91,0.00,,---,0.00,VWS V14.00,2013-12-08 01:29:00,
2013-12-07 19:34:00,22.8,20.6,30.54,NNW,343,3.0,4.0,91,0.00,,---,0.00,VWS V14.00,2013-12-08 01:34:00,
2013-12-07 19:39:00,22.8,20.6,30.54,NE,44,3.0,5.0,91,0.00,,---,0.00,VWS V14.00,2013-12-08 01:39:00,
2013-12-07 19:44:00,22.8,20.6,30.53,NNW,342,1.0,2.0,91,0.00,,---,0.00,VWS V14.00,2013-12-08 01:44:00,
2013-12-07 19:50:00,22.8,20.6,30.53,NNE,19,3.0,3.0,91,0.00,,---,0.00,VWS V14.00,2013-12-08 01:50:00,
2013-12-07 19:55:00,22.9,20.7,30.53,NE,40,2.0,3.0,91,0.00,,---,0.00,VWS V14.00,2013-12-08 01:55:00,
2013-12-07 20:00:00,22.9,20.7,30.53,NNE,25,4.0,4.0,91,0.00,,---,0.00,VWS V14.00,2013-12-08 02:00:00,
2013-12-07 20:05:00,22.9,20.7,30.54,North,360,2.0,3.0,91,0.00,,---,0.00,VWS V14.00,2013-12-08 02:05:00,
2013-12-07 20:10:00,22.9,20.7,30.52,NNE,25,4.0,5.0,91,0.00,,---,0.00,VWS V14.00,2013-12-08 02:10:00,
2013-12-07 20:15:00,22.9,20.7,30.52,North,357,6.0,6.0,91,0.00,,---,0.00,VWS V14.00,2013-12-08 02:15:00,
2013-12-07 20:20:00,22.9,20.7,30.51,North,4,4.0,6.0,91,0.00,,---,0.00,VWS V14.00,2013-12-08 02:20:00,
2013-12-07 20:25:00,22.9,20.7,30.51,North,4,6.0,6.0,91,0.00,,---,0.00,VWS V14.00,2013-12-08 02:25:00,
2013-12-07 20:30:00,22.9,20.7,30.52,NE,34,2.0,2.0,91,0.00,,---,0.00,VWS V14.00,2013-12-08 02:30:00,
2013-12-07 20:35:00,23.0,20.8,30.52,NNE,32,5.0,6.0,91,0.00,,---,0.00,VWS V14.00,2013-12-08 02:35:00,
2013-12-07 20:41:00,23.1,20.9,30.52,NNE,23,5.0,5.0,91,0.00,,---,0.00,VWS V14.00,2013-12-08 02:41:00,
2013-12-07 20:46:00,23.2,21.0,30.51,NE,35,4.0,7.0,91,0.00,,---,0.00,VWS V14.00,2013-12-08 02:46:00,
2013-12-07 20:51:00,23.2,21.0,30.51,NE,37,4.0,6.0,91,0.00,,---,0.00,VWS V14.00,2013-12-08 02:51:00,
2013-12-07 20:56:00,23.2,21.0,30.50,NE,44,4.0,7.0,91,0.00,,---,0.00,VWS V14.00,2013-12-08 02:56:00,
2013-12-07 21:01:00,23.3,21.1,30.50,North,349,2.0,6.0,91,0.00,,---,0.00,VWS V14.00,2013-12-08 03:01:00,
2013-12-07 21:06:00,23.3,21.1,30.50,NNE,29,6.0,6.0,91,0.00,,---,0.00,VWS V14.00,2013-12-08 03:06:00,
2013-12-07 21:11:00,23.3,21.1,30.50,ENE,57,3.0,6.0,91,0.00,,---,0.00,VWS V14.00,2013-12-08 03:11:00,
2013-12-07 21:17:00,23.4,21.2,30.50,NE,42,4.0,5.0,91,0.00,,---,0.00,VWS V14.00,2013-12-08 03:17:00,
2013-12-07 21:22:00,23.4,21.4,30.50,NNW,345,4.0,5.0,92,0.00,,---,0.00,VWS V14.00,2013-12-08 03:22:00,
2013-12-07 21:27:00,23.5,21.5,30.49,NE,38,4.0,8.0,92,0.00,,---,0.00,VWS V14.00,2013-12-08 03:27:00,
2013-12-07 21:32:00,23.5,21.5,30.48,ENE,64,1.0,7.0,92,0.00,,---,0.00,VWS V14.00,2013-12-08 03:32:00,
2013-12-07 21:37:00,23.5,21.5,30.48,North,357,4.0,8.0,92,0.00,,---,0.00,VWS V14.00,2013-12-08 03:37:00,
2013-12-07 21:43:00,23.6,21.6,30.48,NNW,345,2.0,7.0,92,0.00,,---,0.00,VWS V14.00,2013-12-08 03:43:00,
2013-12-07 21:48:00,23.6,21.6,30.47,North,4,4.0,6.0,92,0.00,,---,0.00,VWS V14.00,2013-12-08 03:48:00,
2013-12-07 21:53:00,23.6,21.6,30.48,NE,34,3.0,4.0,92,0.00,,---,0.00,VWS V14.00,2013-12-08 03:53:00,
2013-12-07 21:58:00,23.7,21.7,30.46,NNE,23,6.0,6.0,92,0.00,,---,0.00,VWS V14.00,2013-12-08 03:58:00,
2013-12-07 22:03:00,23.8,21.8,30.47,NNW,347,4.0,7.0,92,0.00,,---,0.00,VWS V14.00,2013-12-08 04:03:00,
2013-12-07 22:08:00,23.8,21.8,30.47,NE,50,1.0,6.0,92,0.00,,---,0.00,VWS V14.00,2013-12-08 04:08:00,
2013-12-07 22:13:00,23.8,21.8,30.47,NE,42,2.0,6.0,92,0.00,,---,0.00,VWS V14.00,2013-12-08 04:13:00,
2013-12-07 22:19:00,23.9,21.9,30.46,NNW,342,3.0,7.0,92,0.00,,---,0.00,VWS V14.00,2013-12-08 04:19:00,
2013-12-07 22:24:00,23.9,21.9,30.46,WNW,295,4.0,6.0,92,0.00,,---,0.00,VWS V14.00,2013-12-08 04:24:00,
2013-12-07 22:29:00,24.0,22.0,30.45,North,8,4.0,8.0,92,0.00,,---,0.00,VWS V14.00,2013-12-08 04:29:00,
2013-12-07 22:34:00,24.0,22.0,30.45,NE,56,2.0,6.0,92,0.00,,---,0.00,VWS V14.00,2013-12-08 04:34:00,
2013-12-07 22:39:00,24.1,22.1,30.45,NNE,29,3.0,5.0,92,0.00,,---,0.00,VWS V14.00,2013-12-08 04:39:00,
2013-12-07 22:44:00,24.2,22.2,30.45,North,349,3.0,6.0,92,0.00,,---,0.00,VWS V14.00,2013-12-08 04:44:00,
2013-12-07 22:49:00,24.3,22.3,30.46,NE,41,4.0,6.0,92,0.00,,---,0.00,VWS V14.00,2013-12-08 04:49:00,
2013-12-07 22:54:00,24.4,22.4,30.47,ENE,63,3.0,6.0,92,0.00,,---,0.00,VWS V14.00,2013-12-08 04:54:00,
2013-12-07 22:59:00,24.5,22.5,30.46,North,8,5.0,6.0,92,0.00,,---,0.00,VWS V14.00,2013-12-08 04:59:00,
2013-12-07 23:01:00,24.5,22.5,30.46,NNW,345,1.0,6.0,92,0.00,,---,0.00,VWS V14.00,2013-12-08 05:01:00,
2013-12-07 23:02:00,24.5,22.5,30.46,NNW,330,2.0,6.0,92,0.00,,---,0.00,VWS V14.00,2013-12-08 05:02:00,
2013-12-07 23:04:00,24.5,22.5,30.46,NE,36,3.0,6.0,92,0.00,,---,0.00,VWS V14.00,2013-12-08 05:04:00,
2013-12-07 23:09:00,24.6,22.6,30.46,NE,42,3.0,5.0,92,0.00,,---,0.00,VWS V14.00,2013-12-08 05:09:00,
2013-12-07 23:14:00,24.7,22.7,30.45,NNE,18,4.0,6.0,92,0.00,,---,0.00,VWS V14.00,2013-12-08 05:14:00,
2013-12-07 23:19:00,24.7,22.7,30.45,NNE,20,4.0,4.0,92,0.00,,---,0.00,VWS V14.00,2013-12-08 05:19:00,
2013-12-07 23:24:00,24.8,22.8,30.45,NE,46,3.0,7.0,92,0.00,,---,0.00,VWS V14.00,2013-12-08 05:24:00,
2013-12-07 23:29:00,24.8,22.8,30.45,NNE,22,3.0,5.0,92,0.00,,---,0.00,VWS V14.00,2013-12-08 05:29:00,
2013-12-07 23:34:00,24.9,22.9,30.45,NNE,18,3.0,6.0,92,0.00,,---,0.00,VWS V14.00,2013-12-08 05:34:00,
2013-12-07 23:39:00,24.9,22.9,30.44,NNW,345,5.0,8.0,92,0.00,,---,0.00,VWS V14.00,2013-12-08 05:39:00,
2013-12-07 23:44:00,25.0,23.0,30.43,North,357,3.0,6.0,92,0.00,,---,0.00,VWS V14.00,2013-12-08 05:44:00,
2013-12-07 23:49:00,25.0,23.0,30.43,NNE,27,4.0,7.0,92,0.00,,---,0.00,VWS V14.00,2013-12-08 05:49:00,
2013-12-07 23:54:00,25.1,23.1,30.43,NE,44,2.0,9.0,92,0.00,,---,0.00,VWS V14.00,2013-12-08 05:54:00,
2013-12-07 23:59:00,25.1,23.1,30.44,ENE,58,1.0,6.0,92,0.00,,---,0.00,VWS V14.00,2013-12-08 05:59:00,